Time;durP1;ratioP1;P1;durP2;ratioP2;P2;SDS_P1;SDS_P2;PMS_P1;PMS_P2;Temp;Humidity;BMP_temperature;BMP_pressure;BME280_temperature;BME280_humidity;BME280_pressure;Samples;Min_cycle;Max_cycle;Signal;HPM_P1;HPM_P2
2022/10/20 00:01:06;;;;;;;13.88;6.90;;;7.10;99.90;;;;;;5114584;28;20162;-28
2022/10/20 00:03:31;;;;;;;26.50;6.32;;;7.10;99.90;;;;;;5114675;28;20374;-27
2022/10/20 00:06:16;;;;;;;14.52;6.22;;;7.10;99.90;;;;;;5113797;28;20047;-28
2022/10/20 00:08:42;;;;;;;12.93;5.30;;;7.20;99.90;;;;;;5113878;28;20052;-28
2022/10/20 00:11:10;;;;;;;18.38;8.43;;;7.20;99.90;;;;;;5113129;28;20050;-28
2022/10/20 00:13:36;;;;;;;12.35;5.45;;;7.10;99.90;;;;;;5113653;28;20043;-27
2022/10/20 00:16:01;;;;;;;11.27;5.72;;;7.10;99.90;;;;;;5115098;28;20047;-27
2022/10/20 00:18:27;;;;;;;14.25;5.88;;;7.00;99.90;;;;;;5117361;28;20055;-27
2022/10/20 00:20:53;;;;;;;19.23;5.57;;;7.10;99.90;;;;;;5117602;28;20071;-27
2022/10/20 00:23:20;;;;;;;9.40;5.18;;;7.10;99.90;;;;;;5117673;27;20050;-28
2022/10/20 00:25:46;;;;;;;15.85;5.53;;;7.10;99.90;;;;;;5118326;28;20048;-27
2022/10/20 00:28:12;;;;;;;14.07;5.90;;;7.00;99.90;;;;;;5117461;28;20427;-27
2022/10/20 00:30:38;;;;;;;13.63;5.57;;;7.00;99.90;;;;;;5117499;28;20043;-28
2022/10/20 00:33:04;;;;;;;14.60;5.85;;;7.00;99.90;;;;;;5117162;28;20060;-27
2022/10/20 00:35:34;;;;;;;7.97;5.13;;;7.00;99.90;;;;;;5117677;28;20124;-27
2022/10/20 00:38:00;;;;;;;13.65;5.57;;;7.00;99.90;;;;;;5117271;27;20087;-27
2022/10/20 00:40:26;;;;;;;11.43;5.57;;;6.90;99.90;;;;;;5116216;28;20121;-27
2022/10/20 00:42:52;;;;;;;13.80;5.85;;;6.90;99.90;;;;;;5099847;28;20100;-27
2022/10/20 00:45:20;;;;;;;9.50;5.53;;;6.90;99.90;;;;;;5117151;28;20047;-28
2022/10/20 00:47:51;;;;;;;11.07;5.68;;;6.90;99.90;;;;;;5117406;28;20043;-27
2022/10/20 00:50:26;;;;;;;12.07;5.22;;;6.90;99.90;;;;;;5117918;28;20075;-27
2022/10/20 00:52:54;;;;;;;9.00;5.30;;;6.80;99.90;;;;;;5117789;28;20100;-27
2022/10/20 00:55:25;;;;;;;16.27;6.18;;;6.80;99.90;;;;;;5116949;28;20044;-27
2022/10/20 00:57:53;;;;;;;14.93;5.75;;;6.80;99.90;;;;;;5116294;28;20051;-27
2022/10/20 01:00:19;;;;;;;12.68;5.40;;;6.70;99.90;;;;;;5115631;28;20094;-27
2022/10/20 01:02:45;;;;;;;8.45;5.40;;;6.70;99.90;;;;;;5117064;28;20032;-27
2022/10/20 01:05:11;;;;;;;10.80;5.10;;;6.60;99.90;;;;;;5116748;28;20508;-27
2022/10/20 01:07:37;;;;;;;12.38;6.03;;;6.60;99.90;;;;;;5116682;28;20088;-27
2022/10/20 01:10:07;;;;;;;9.85;5.60;;;6.60;99.90;;;;;;5115722;28;20043;-27
2022/10/20 01:12:59;;;;;;;10.85;5.70;;;6.50;99.90;;;;;;5116537;27;20513;-27
2022/10/20 01:16:01;;;;;;;12.65;5.95;;;6.50;99.90;;;;;;5117435;28;20047;-27
2022/10/20 01:18:57;;;;;;;11.68;5.60;;;6.50;99.90;;;;;;5097819;28;20142;-27
2022/10/20 01:21:34;;;;;;;13.05;5.32;;;6.40;99.90;;;;;;5116796;27;20046;-27
2022/10/20 01:24:15;;;;;;;11.98;5.57;;;6.40;99.90;;;;;;5116674;28;20039;-27
2022/10/20 01:27:32;;;;;;;9.23;5.93;;;6.40;99.90;;;;;;5115358;28;20055;-27
2022/10/20 01:30:21;;;;;;;9.88;5.47;;;6.40;99.90;;;;;;5115935;28;20051;-27
2022/10/20 01:32:55;;;;;;;12.82;6.30;;;6.40;99.90;;;;;;5116308;28;20474;-27
2022/10/20 01:35:48;;;;;;;14.52;5.72;;;6.50;99.90;;;;;;5116500;28;20152;-27
2022/10/20 01:38:20;;;;;;;16.60;6.22;;;6.40;99.90;;;;;;5116197;27;20048;-28
2022/10/20 01:41:14;;;;;;;13.50;6.13;;;6.50;99.90;;;;;;5116184;28;20397;-27
2022/10/20 01:43:42;;;;;;;11.40;6.78;;;6.40;99.90;;;;;;5112796;28;20095;-27
2022/10/20 01:46:16;;;;;;;11.15;5.57;;;6.40;99.90;;;;;;5115683;28;20500;-27
2022/10/20 01:48:45;;;;;;;12.50;5.38;;;6.40;99.90;;;;;;5116486;28;20397;-27
2022/10/20 01:51:11;;;;;;;9.05;5.70;;;6.40;99.90;;;;;;5115926;28;20096;-27
2022/10/20 01:53:36;;;;;;;13.35;6.25;;;6.40;99.90;;;;;;5114316;28;20130;-27
2022/10/20 01:56:05;;;;;;;11.38;5.47;;;6.30;99.90;;;;;;5115784;28;20043;-27
2022/10/20 01:58:44;;;;;;;10.95;6.05;;;6.40;99.90;;;;;;5116005;28;20079;-28
2022/10/20 02:01:23;;;;;;;11.65;6.18;;;6.50;99.90;;;;;;5115693;28;20043;-27
2022/10/20 02:04:00;;;;;;;10.75;5.80;;;6.40;99.90;;;;;;5115703;28;20496;-28
2022/10/20 02:06:45;;;;;;;16.08;6.13;;;6.30;99.90;;;;;;5115633;28;20122;-27
2022/10/20 02:09:17;;;;;;;11.50;5.93;;;6.30;99.90;;;;;;5116216;28;20512;-27
2022/10/20 02:12:00;;;;;;;15.18;5.93;;;6.30;99.90;;;;;;5115540;28;20044;-27
2022/10/20 02:14:26;;;;;;;13.75;5.60;;;6.30;99.90;;;;;;5115403;28;20043;-27
2022/10/20 02:16:57;;;;;;;11.82;5.60;;;6.30;99.90;;;;;;5115395;28;20182;-27
2022/10/20 02:19:29;;;;;;;12.77;5.57;;;6.30;99.90;;;;;;5115933;27;20093;-27
2022/10/20 02:21:56;;;;;;;11.00;5.97;;;6.30;99.90;;;;;;5115203;28;20130;-28
2022/10/20 02:24:26;;;;;;;9.45;6.00;;;6.30;99.90;;;;;;5115285;28;20431;-27
2022/10/20 02:26:58;;;;;;;14.13;6.03;;;6.30;99.90;;;;;;5115142;28;20515;-27
2022/10/20 02:29:35;;;;;;;8.77;6.20;;;6.30;99.90;;;;;;5115175;28;20495;-27
2022/10/20 02:32:01;;;;;;;13.75;6.43;;;6.30;99.90;;;;;;5114172;28;20047;-27
2022/10/20 02:34:27;;;;;;;16.33;6.18;;;6.40;99.90;;;;;;5114707;28;20056;-27
2022/10/20 02:36:57;;;;;;;12.40;6.03;;;6.40;99.90;;;;;;5115039;28;20051;-27
2022/10/20 02:39:24;;;;;;;11.55;6.43;;;6.30;99.90;;;;;;5114864;28;20046;-27
2022/10/20 02:41:50;;;;;;;10.32;6.55;;;6.20;99.90;;;;;;5114867;28;20095;-27
2022/10/20 02:44:16;;;;;;;9.93;6.80;;;6.20;99.90;;;;;;5114843;28;20046;-27
2022/10/20 02:46:42;;;;;;;19.55;7.00;;;6.30;99.90;;;;;;5114454;28;20054;-27
2022/10/20 02:49:08;;;;;;;15.50;7.57;;;6.20;99.90;;;;;;5114746;28;20043;-27
2022/10/20 02:51:34;;;;;;;12.38;6.43;;;6.20;99.90;;;;;;5114357;28;20039;-27
2022/10/20 02:53:59;;;;;;;14.60;7.57;;;6.20;99.90;;;;;;5114626;28;20504;-27
2022/10/20 02:56:25;;;;;;;12.77;6.70;;;6.20;99.90;;;;;;5114648;28;20504;-27
2022/10/20 02:58:51;;;;;;;13.48;7.28;;;6.20;99.90;;;;;;5115110;28;20054;-27
2022/10/20 03:01:17;;;;;;;12.80;6.85;;;6.20;99.90;;;;;;5114434;28;20507;-28
2022/10/20 03:03:42;;;;;;;12.02;7.13;;;6.10;99.90;;;;;;5115066;28;20237;-28
2022/10/20 03:06:14;;;;;;;12.63;7.30;;;6.10;99.90;;;;;;5114446;28;20043;-28
2022/10/20 03:08:40;;;;;;;12.43;7.43;;;6.10;99.90;;;;;;5114927;28;20043;-27
2022/10/20 03:11:06;;;;;;;19.92;7.55;;;6.00;99.90;;;;;;5115181;28;20388;-27
2022/10/20 03:13:32;;;;;;;12.93;7.93;;;6.00;99.90;;;;;;5113220;28;20122;-27
2022/10/20 03:15:59;;;;;;;14.48;7.88;;;6.00;99.90;;;;;;5114884;28;20446;-27
2022/10/20 03:18:28;;;;;;;17.63;8.70;;;6.10;99.90;;;;;;5114108;28;20343;-27
2022/10/20 03:20:54;;;;;;;16.67;8.88;;;6.00;99.90;;;;;;5115107;28;20039;-27
2022/10/20 03:23:20;;;;;;;14.27;9.05;;;6.00;99.90;;;;;;5114220;28;20359;-28
2022/10/20 03:25:46;;;;;;;14.40;9.35;;;5.90;99.90;;;;;;5114498;28;20079;-27
2022/10/20 03:28:12;;;;;;;15.23;8.70;;;5.90;99.90;;;;;;5114492;28;20066;-27
2022/10/20 03:30:38;;;;;;;13.35;8.40;;;6.00;99.90;;;;;;5114154;28;20491;-28
2022/10/20 03:33:04;;;;;;;15.35;9.40;;;6.00;99.90;;;;;;5113106;28;20059;-27
2022/10/20 03:35:29;;;;;;;12.25;8.02;;;6.00;99.90;;;;;;5114707;28;20063;-27
2022/10/20 03:37:55;;;;;;;14.00;8.25;;;6.00;99.90;;;;;;5113992;28;20043;-27
2022/10/20 03:40:20;;;;;;;14.52;8.40;;;6.00;99.90;;;;;;5112841;28;20128;-27
2022/10/20 03:42:47;;;;;;;12.95;8.70;;;6.00;99.90;;;;;;5114288;28;20047;-27
2022/10/20 03:45:12;;;;;;;14.80;8.77;;;6.00;99.90;;;;;;5113967;28;20119;-27
2022/10/20 03:47:38;;;;;;;14.15;9.55;;;6.00;99.90;;;;;;5114027;28;20495;-27
2022/10/20 03:50:07;;;;;;;12.30;8.85;;;5.90;99.90;;;;;;5116543;28;20083;-27
2022/10/20 03:52:33;;;;;;;15.55;8.98;;;5.90;99.90;;;;;;5118132;27;20054;-28
2022/10/20 03:54:59;;;;;;;11.55;8.23;;;5.90;99.90;;;;;;5118237;28;20043;-27
2022/10/20 03:57:24;;;;;;;15.23;9.68;;;5.90;99.90;;;;;;5118130;28;20132;-27
2022/10/20 03:59:50;;;;;;;13.45;9.20;;;5.90;99.90;;;;;;5099998;28;20035;-28
2022/10/20 04:02:39;;;;;;;16.70;10.07;;;5.90;99.90;;;;;;5082971;28;20051;-27
2022/10/20 04:05:06;;;;;;;14.52;9.70;;;5.90;99.90;;;;;;5117977;28;20144;-28
2022/10/20 04:07:31;;;;;;;20.23;11.80;;;6.00;99.90;;;;;;5118726;28;20147;-27
2022/10/20 04:09:57;;;;;;;13.82;9.32;;;6.00;99.90;;;;;;5117898;28;20127;-27
2022/10/20 04:12:23;;;;;;;13.63;8.80;;;6.00;99.90;;;;;;5118666;28;20051;-27
2022/10/20 04:14:49;;;;;;;16.05;9.10;;;6.00;99.90;;;;;;5117713;28;20397;-27
2022/10/20 04:17:15;;;;;;;17.83;9.85;;;6.00;99.90;;;;;;5117759;28;20485;-27
2022/10/20 04:19:41;;;;;;;14.50;9.93;;;6.00;99.90;;;;;;5117738;28;20159;-27
2022/10/20 04:22:07;;;;;;;12.93;10.13;;;6.00;99.90;;;;;;5117658;28;20047;-27
2022/10/20 04:24:33;;;;;;;17.92;9.90;;;5.90;99.90;;;;;;5118164;27;20039;-27
2022/10/20 04:26:58;;;;;;;19.25;10.13;;;6.00;99.90;;;;;;5117563;28;20078;-27
2022/10/20 04:29:24;;;;;;;15.07;10.70;;;5.90;99.90;;;;;;5117501;28;20044;-29
2022/10/20 04:31:50;;;;;;;20.42;11.02;;;5.90;99.90;;;;;;5117507;28;20397;-27
2022/10/20 04:34:16;;;;;;;18.70;12.65;;;5.90;99.90;;;;;;5117560;28;20138;-28
2022/10/20 04:36:41;;;;;;;17.80;11.80;;;5.90;99.90;;;;;;5116465;28;20102;-27
2022/10/20 04:39:08;;;;;;;17.92;11.85;;;5.80;99.90;;;;;;5117597;28;20051;-27
2022/10/20 04:41:33;;;;;;;17.48;11.75;;;5.90;99.90;;;;;;5117310;28;20047;-27
2022/10/20 04:43:59;;;;;;;19.83;11.90;;;5.90;99.90;;;;;;5117193;28;20381;-27
2022/10/20 04:46:27;;;;;;;16.70;10.75;;;5.90;99.90;;;;;;5117005;28;20058;-27
2022/10/20 04:48:53;;;;;;;18.42;12.20;;;5.90;99.90;;;;;;5115934;28;20079;-27
2022/10/20 04:51:19;;;;;;;18.17;12.20;;;5.90;99.90;;;;;;5099975;28;20047;-27
2022/10/20 04:53:46;;;;;;;16.02;11.15;;;5.80;99.90;;;;;;5117463;28;20032;-27
2022/10/20 04:56:18;;;;;;;18.75;11.88;;;5.80;99.90;;;;;;5117814;28;20043;-27
2022/10/20 04:58:54;;;;;;;21.80;12.00;;;5.80;99.90;;;;;;5116534;28;20456;-28
2022/10/20 05:01:22;;;;;;;17.35;11.07;;;5.70;99.90;;;;;;5116646;28;20109;-27
2022/10/20 05:03:48;;;;;;;17.20;13.00;;;5.70;99.90;;;;;;5116525;28;20511;-27
2022/10/20 05:06:20;;;;;;;16.58;11.90;;;5.80;99.90;;;;;;5116467;28;20047;-27
2022/10/20 05:08:50;;;;;;;19.60;12.95;;;5.70;99.90;;;;;;5116074;28;20054;-27
2022/10/20 05:11:17;;;;;;;17.10;12.18;;;5.60;99.90;;;;;;5115804;28;20379;-27
2022/10/20 05:13:43;;;;;;;22.52;13.00;;;5.70;99.90;;;;;;5116255;28;20035;-27
2022/10/20 05:16:10;;;;;;;17.88;13.60;;;5.70;99.90;;;;;;5116549;28;20096;-27
2022/10/20 05:18:36;;;;;;;24.13;13.98;;;5.70;99.90;;;;;;5116830;28;20119;-28
2022/10/20 05:21:10;;;;;;;21.05;13.60;;;5.70;99.90;;;;;;5116565;28;20058;-27
2022/10/20 05:23:39;;;;;;;20.38;15.23;;;5.70;99.90;;;;;;5115351;28;20040;-28
2022/10/20 05:26:08;;;;;;;22.17;14.27;;;5.70;99.90;;;;;;5115178;28;20397;-28
2022/10/20 05:28:34;;;;;;;22.92;15.32;;;5.70;99.90;;;;;;5115208;28;20079;-27
2022/10/20 05:31:09;;;;;;;22.30;14.88;;;5.70;99.90;;;;;;5115120;28;20086;-27
2022/10/20 05:33:35;;;;;;;22.70;15.93;;;5.70;99.90;;;;;;5116827;28;20091;-27
2022/10/20 05:36:18;;;;;;;24.15;14.82;;;5.60;99.90;;;;;;5116277;28;20052;-28
2022/10/20 05:38:44;;;;;;;23.33;14.13;;;5.70;99.90;;;;;;5116210;28;20516;-27
2022/10/20 05:41:22;;;;;;;22.30;14.27;;;5.80;99.90;;;;;;5115183;28;20050;-27
2022/10/20 05:43:49;;;;;;;21.92;14.63;;;5.70;99.90;;;;;;5116098;28;20239;-27
2022/10/20 05:46:15;;;;;;;19.85;14.25;;;5.70;99.90;;;;;;5115070;28;20118;-27
2022/10/20 05:48:41;;;;;;;22.55;15.40;;;5.70;99.90;;;;;;5116059;28;20416;-27
2022/10/20 05:51:16;;;;;;;32.58;14.88;;;5.70;99.90;;;;;;5114806;28;20047;-27
2022/10/20 05:53:43;;;;;;;23.58;14.30;;;5.70;99.90;;;;;;5116125;28;20051;-28
2022/10/20 05:56:11;;;;;;;22.17;14.45;;;5.70;99.90;;;;;;5116383;28;20043;-27
2022/10/20 05:58:38;;;;;;;21.63;13.75;;;5.70;99.90;;;;;;5116323;28;20043;-27
2022/10/20 06:01:17;;;;;;;19.30;13.75;;;5.60;99.90;;;;;;5115685;28;20071;-27
2022/10/20 06:03:51;;;;;;;21.25;13.65;;;5.70;99.90;;;;;;5115721;28;20124;-27
2022/10/20 06:06:19;;;;;;;29.50;15.18;;;5.70;99.90;;;;;;5115700;28;20097;-27
2022/10/20 06:08:44;;;;;;;23.13;15.15;;;5.60;99.90;;;;;;5097651;28;20473;-27
2022/10/20 06:11:15;;;;;;;18.30;15.02;;;5.60;99.90;;;;;;5097655;28;20051;-27
2022/10/20 06:13:41;;;;;;;21.45;13.85;;;5.60;99.90;;;;;;5113405;28;20128;-27
2022/10/20 06:16:09;;;;;;;21.08;14.43;;;5.60;99.90;;;;;;5115451;28;20451;-27
2022/10/20 06:18:38;;;;;;;27.15;14.65;;;5.60;99.90;;;;;;5115400;28;20442;-27
2022/10/20 06:21:07;;;;;;;21.67;13.80;;;5.70;99.90;;;;;;5115543;28;20541;-27
2022/10/20 06:23:33;;;;;;;23.92;14.98;;;5.70;99.90;;;;;;5115353;28;20477;-27
2022/10/20 06:26:07;;;;;;;24.67;15.80;;;5.70;99.90;;;;;;5115234;28;20047;-27
2022/10/20 06:28:34;;;;;;;19.70;15.00;;;5.70;99.90;;;;;;5115480;28;20055;-27
2022/10/20 06:31:08;;;;;;;20.92;15.20;;;5.70;99.90;;;;;;5115138;28;20108;-27
2022/10/20 06:33:34;;;;;;;22.92;15.65;;;5.80;99.90;;;;;;5097143;28;20055;-28
2022/10/20 06:36:00;;;;;;;22.08;15.15;;;5.80;99.90;;;;;;5115417;28;20108;-27
2022/10/20 06:38:26;;;;;;;22.92;16.40;;;5.80;99.90;;;;;;5115618;28;20450;-27
2022/10/20 06:40:52;;;;;;;20.25;14.55;;;5.90;99.90;;;;;;5114344;28;20055;-28
2022/10/20 06:43:18;;;;;;;23.15;15.75;;;5.80;99.90;;;;;;5115024;28;20036;-27
2022/10/20 06:45:52;;;;;;;20.50;14.20;;;5.90;99.90;;;;;;5114047;28;20523;-27
2022/10/20 06:48:17;;;;;;;18.23;14.40;;;5.90;99.90;;;;;;5115220;28;20099;-28
2022/10/20 06:50:43;;;;;;;18.60;14.70;;;5.90;99.90;;;;;;5114713;28;20044;-27
2022/10/20 06:53:09;;;;;;;23.15;16.50;;;5.90;99.90;;;;;;5114717;28;20088;-27
2022/10/20 06:55:35;;;;;;;21.83;15.70;;;6.00;99.90;;;;;;5115315;28;20043;-27
2022/10/20 06:58:00;;;;;;;20.17;15.13;;;6.00;99.90;;;;;;5115329;28;20047;-27
2022/10/20 07:00:26;;;;;;;20.38;15.00;;;6.10;99.90;;;;;;5114918;28;20043;-27
2022/10/20 07:02:52;;;;;;;20.83;15.23;;;6.10;99.90;;;;;;5113436;28;20044;-27
2022/10/20 07:05:18;;;;;;;21.10;15.50;;;6.00;99.90;;;;;;5114858;28;20054;-27
2022/10/20 07:07:44;;;;;;;22.35;14.40;;;6.20;99.90;;;;;;5114533;28;20043;-27
2022/10/20 07:10:10;;;;;;;21.17;14.82;;;6.30;99.90;;;;;;5114470;28;20046;-27
2022/10/20 07:12:35;;;;;;;19.83;15.38;;;6.30;99.90;;;;;;5115235;28;20172;-27
2022/10/20 07:15:01;;;;;;;19.65;14.75;;;6.40;99.90;;;;;;5114995;28;20047;-28
2022/10/20 07:17:27;;;;;;;23.75;16.65;;;6.40;99.90;;;;;;5114373;28;20043;-27
2022/10/20 07:19:52;;;;;;;23.05;15.65;;;6.50;99.90;;;;;;5114487;28;20061;-27
2022/10/20 07:22:18;;;;;;;20.67;15.13;;;6.60;99.90;;;;;;5113675;28;20469;-29
2022/10/20 07:24:44;;;;;;;18.73;13.52;;;6.60;99.90;;;;;;5113966;28;20470;-28
2022/10/20 07:27:10;;;;;;;21.58;14.82;;;6.60;99.90;;;;;;5114313;28;20044;-27
2022/10/20 07:29:36;;;;;;;18.20;15.18;;;6.70;99.90;;;;;;5114254;28;20047;-27
2022/10/20 07:32:02;;;;;;;19.45;13.95;;;6.70;99.90;;;;;;5114245;28;20047;-27
2022/10/20 07:34:28;;;;;;;17.63;13.48;;;6.80;99.90;;;;;;5095533;28;20123;-27
2022/10/20 07:36:55;;;;;;;17.70;13.63;;;6.80;99.90;;;;;;5114036;28;20048;-28
2022/10/20 07:39:21;;;;;;;18.35;12.15;;;6.90;99.90;;;;;;5114175;28;20145;-28
2022/10/20 07:41:47;;;;;;;15.98;13.02;;;6.90;99.90;;;;;;5114124;28;20044;-28
2022/10/20 07:44:13;;;;;;;19.08;13.80;;;6.90;99.90;;;;;;5114687;28;20044;-27
2022/10/20 07:46:39;;;;;;;20.65;12.80;;;7.00;99.90;;;;;;5113671;28;20047;-27
2022/10/20 07:49:04;;;;;;;19.65;14.02;;;7.00;99.90;;;;;;5114361;28;20130;-27
2022/10/20 07:51:31;;;;;;;19.98;14.30;;;7.10;99.90;;;;;;5114032;28;20078;-27
2022/10/20 07:54:06;;;;;;;18.00;13.77;;;7.10;99.90;;;;;;5113892;28;20058;-28
2022/10/20 07:56:35;;;;;;;20.20;13.20;;;7.20;99.90;;;;;;5114605;28;20054;-28
2022/10/20 07:59:01;;;;;;;21.30;14.60;;;7.30;99.90;;;;;;5114457;28;20131;-28
2022/10/20 08:01:27;;;;;;;18.92;12.40;;;7.30;99.90;;;;;;5114561;28;20048;-27
2022/10/20 08:03:52;;;;;;;20.77;14.18;;;7.40;99.90;;;;;;5113799;28;20096;-28
2022/10/20 08:06:18;;;;;;;20.15;13.68;;;7.40;99.90;;;;;;5113857;28;20046;-28
2022/10/20 08:08:44;;;;;;;16.50;11.82;;;7.40;99.90;;;;;;5113827;28;20055;-27
2022/10/20 08:11:10;;;;;;;18.08;13.13;;;7.60;99.90;;;;;;5114452;28;20048;-27
2022/10/20 08:13:37;;;;;;;16.10;12.18;;;7.60;99.90;;;;;;5113763;28;20040;-27
2022/10/20 08:16:03;;;;;;;15.60;12.82;;;7.60;99.90;;;;;;5113752;28;20079;-28
2022/10/20 08:18:28;;;;;;;20.80;13.30;;;7.70;99.90;;;;;;5113994;28;20043;-27
2022/10/20 08:21:12;;;;;;;17.83;12.75;;;7.80;99.90;;;;;;5113399;28;20054;-28
2022/10/20 08:23:42;;;;;;;;;;;7.90;99.90;;;;;;5114819;28;20043;-28
2022/10/20 08:26:08;;;;;;;20.90;12.57;;;7.90;99.90;;;;;;5113700;28;19919;-28
2022/10/20 08:28:34;;;;;;;19.83;11.80;;;8.00;99.90;;;;;;5113730;28;20044;-28
2022/10/20 08:31:04;;;;;;;26.70;11.55;;;8.10;99.90;;;;;;5113721;28;20101;-27
2022/10/20 08:33:30;;;;;;;18.15;11.25;;;8.20;99.90;;;;;;5113572;28;20040;-27
2022/10/20 08:36:08;;;;;;;14.55;10.02;;;8.30;99.90;;;;;;5113916;28;20051;-28
2022/10/20 08:38:34;;;;;;;16.10;10.93;;;8.30;99.90;;;;;;5118011;28;20118;-28
2022/10/20 08:41:01;;;;;;;17.63;11.23;;;8.40;99.90;;;;;;5116695;28;20055;-27
2022/10/20 08:43:29;;;;;;;16.02;10.05;;;8.50;99.90;;;;;;5117377;28;20040;-28
2022/10/20 08:45:55;;;;;;;14.90;9.13;;;8.50;99.90;;;;;;5117237;28;20544;-28
2022/10/20 08:48:28;;;;;;;13.88;10.20;;;8.70;99.90;;;;;;5117242;28;20164;-28
2022/10/20 08:50:54;;;;;;;13.50;10.73;;;8.70;99.90;;;;;;5116205;28;20054;-27
2022/10/20 08:53:22;;;;;;;15.35;10.13;;;8.90;99.90;;;;;;5116049;28;20051;-27
2022/10/20 08:55:48;;;;;;;23.92;9.85;;;9.00;99.90;;;;;;5117158;28;20116;-27
2022/10/20 08:58:18;;;;;;;13.32;10.18;;;9.00;99.90;;;;;;5116341;28;20044;-28
2022/10/20 09:00:45;;;;;;;13.60;11.07;;;9.10;99.90;;;;;;5117722;28;20050;-27
2022/10/20 09:03:22;;;;;;;12.00;9.52;;;9.20;99.90;;;;;;5116649;28;20573;-28
2022/10/20 09:06:15;;;;;;;17.92;9.65;;;9.40;99.90;;;;;;5117731;27;20048;-29
2022/10/20 09:08:42;;;;;;;12.95;9.30;;;9.50;99.90;;;;;;5115621;28;20512;-28
2022/10/20 09:11:22;;;;;;;14.90;8.35;;;9.90;99.90;;;;;;5116390;28;20111;-28
2022/10/20 09:13:47;;;;;;;12.45;8.68;;;10.30;99.90;;;;;;5117034;28;20044;-28
2022/10/20 09:16:37;;;;;;;11.20;7.65;;;10.70;99.90;;;;;;5116345;28;20501;-28
2022/10/20 09:19:05;;;;;;;12.00;8.32;;;11.00;99.90;;;;;;5117521;28;20051;-28
2022/10/20 09:21:34;;;;;;;13.98;8.35;;;11.30;99.90;;;;;;5116845;28;20063;-28
2022/10/20 09:24:05;;;;;;;13.20;7.82;;;11.40;47.60;;;;;;5117333;28;20092;-28
2022/10/20 09:26:30;;;;;;;9.25;7.22;;;11.50;99.90;;;;;;5116573;28;20043;-28
2022/10/20 09:29:09;;;;;;;13.63;8.63;;;11.20;99.90;;;;;;5116740;28;20054;-28
2022/10/20 09:31:38;;;;;;;12.57;8.10;;;11.10;77.50;;;;;;5116459;28;20044;-29
2022/10/20 09:34:25;;;;;;;12.50;7.47;;;11.00;1.00;;;;;;5116007;28;20048;-29
2022/10/20 09:36:58;;;;;;;11.30;6.90;;;10.90;99.90;;;;;;5116338;28;20051;-27
2022/10/20 09:39:28;;;;;;;10.50;7.22;;;10.80;1.00;;;;;;5115326;28;20058;-27
2022/10/20 09:42:05;;;;;;;10.27;7.28;;;11.00;1.00;;;;;;5116216;28;20161;-28
2022/10/20 09:44:36;;;;;;;12.45;7.15;;;11.40;1.00;;;;;;5116206;28;20096;-28
2022/10/20 09:47:02;;;;;;;9.23;6.75;;;11.60;99.90;;;;;;5116524;28;20052;-28
2022/10/20 09:49:35;;;;;;;8.18;6.45;;;11.50;99.90;;;;;;5116022;28;20066;-28
2022/10/20 09:52:02;;;;;;;12.05;6.40;;;11.50;99.90;;;;;;5116051;28;20393;-28
2022/10/20 09:54:29;;;;;;;9.95;6.70;;;11.40;1.00;;;;;;5114666;28;20401;-28
2022/10/20 09:57:04;;;;;;;8.88;6.55;;;11.20;1.00;;;;;;5115869;28;20562;-29
2022/10/20 09:59:37;;;;;;;9.60;6.00;;;11.20;99.90;;;;;;5116764;28;20047;-28
2022/10/20 10:02:22;;;;;;;11.80;7.22;;;11.10;99.90;;;;;;5114279;28;20427;-28
2022/10/20 10:04:50;;;;;;;10.15;6.97;;;11.10;99.90;;;;;;5115966;28;20043;-29
2022/10/20 10:07:25;;;;;;;13.18;6.75;;;11.10;1.00;;;;;;5114510;28;20560;-28
2022/10/20 10:10:05;;;;;;;8.73;7.07;;;11.20;1.00;;;;;;5114383;28;20448;-28
2022/10/20 10:12:31;;;;;;;11.95;6.20;;;11.30;99.90;;;;;;5115525;28;20048;-29
2022/10/20 10:15:18;;;;;;;9.55;6.00;;;11.40;99.90;;;;;;5115491;28;20043;-28
2022/10/20 10:17:44;;;;;;;11.52;5.95;;;11.50;99.90;;;;;;5115591;28;20047;-28
2022/10/20 10:20:10;;;;;;;8.00;6.13;;;11.70;1.00;;;;;;5115970;28;20046;-28
2022/10/20 10:22:36;;;;;;;11.88;6.30;;;11.60;99.90;;;;;;5114973;28;20055;-28
2022/10/20 10:25:04;;;;;;;12.45;6.43;;;11.80;1.00;;;;;;5115349;28;20055;-28
2022/10/20 10:27:33;;;;;;;8.90;5.80;;;11.90;99.90;;;;;;5115268;28;20083;-28
2022/10/20 10:30:26;;;;;;;9.43;5.82;;;12.10;1.00;;;;;;5115251;28;20047;-28
2022/10/20 10:32:52;;;;;;;7.65;5.45;;;12.40;1.00;;;;;;5115159;28;20047;-28
2022/10/20 10:35:38;;;;;;;10.70;6.20;;;12.50;1.00;;;;;;5115285;28;20142;-28
2022/10/20 10:38:05;;;;;;;9.55;5.38;;;12.60;99.90;;;;;;5115718;28;20047;-28
2022/10/20 10:41:10;;;;;;;8.88;6.03;;;12.90;1.20;;;;;;5115048;28;20126;-28
2022/10/20 10:43:35;;;;;;;7.82;5.03;;;13.60;99.90;;;;;;5097382;28;20059;-28
2022/10/20 10:46:12;;;;;;;8.07;5.03;;;14.10;99.90;;;;;;5113873;28;20054;-28
2022/10/20 10:48:44;;;;;;;11.65;5.55;;;14.40;1.00;;;;;;5115259;28;20052;-28
2022/10/20 10:51:34;;;;;;;8.38;5.22;;;14.20;99.90;;;;;;5115200;28;20070;-28
2022/10/20 10:54:24;;;;;;;11.77;5.60;;;13.70;99.90;;;;;;5114503;28;20048;-28
2022/10/20 10:56:55;;;;;;;10.13;5.72;;;13.60;99.90;;;;;;5115697;28;20040;-28
2022/10/20 10:59:26;;;;;;;9.57;5.35;;;13.50;1.00;;;;;;5114206;28;20044;-28
2022/10/20 11:02:22;;;;;;;9.35;5.47;;;13.50;74.90;;;;;;5114669;28;20077;-29
2022/10/20 11:05:26;;;;;;;9.95;5.20;;;13.70;99.90;;;;;;5114728;28;20047;-28
2022/10/20 11:08:23;;;;;;;9.23;5.60;;;13.90;1.00;;;;;;5114594;28;20051;-28
2022/10/20 11:11:21;;;;;;;9.73;5.63;;;14.10;47.70;;;;;;5115727;28;20083;-28
2022/10/20 11:14:24;;;;;;;7.60;5.18;;;14.10;1.00;;;;;;5095006;28;20105;-28
2022/10/20 11:17:14;;;;;;;9.00;5.30;;;14.20;1.00;;;;;;5114449;28;20477;-28
2022/10/20 11:19:55;;;;;;;6.85;5.53;;;14.00;1.00;;;;;;5113436;28;20484;-28
2022/10/20 11:22:23;;;;;;;9.60;5.72;;;13.80;1.00;;;;;;5114462;28;20090;-28
2022/10/20 11:25:19;;;;;;;8.00;5.30;;;13.70;99.20;;;;;;5114418;28;20059;-28
2022/10/20 11:27:44;;;;;;;8.18;5.25;;;13.80;99.90;;;;;;5104471;28;20051;-29
2022/10/20 11:30:20;;;;;;;7.22;5.57;;;13.80;1.00;;;;;;5096766;28;20074;-29
2022/10/20 11:32:51;;;;;;;7.97;4.95;;;13.80;1.00;;;;;;5114167;28;20052;-28
2022/10/20 11:35:35;;;;;;;6.10;5.18;;;13.70;99.90;;;;;;5112974;28;20386;-28
2022/10/20 11:38:01;;;;;;;8.23;5.30;;;13.60;99.90;;;;;;5114728;28;20054;-28
2022/10/20 11:40:31;;;;;;;12.68;7.00;;;13.50;11.30;;;;;;5114522;28;20419;-28
2022/10/20 11:43:22;;;;;;;7.50;5.15;;;13.40;99.90;;;;;;5112819;28;20450;-28
2022/10/20 11:46:08;;;;;;;9.00;6.13;;;13.30;99.90;;;;;;5114401;28;20485;-28
2022/10/20 11:48:44;;;;;;;7.70;5.43;;;13.40;99.90;;;;;;5113609;28;20051;-28
2022/10/20 11:51:34;;;;;;;10.18;5.60;;;13.30;99.90;;;;;;5114456;28;20386;-28
2022/10/20 11:54:15;;;;;;;6.75;4.88;;;13.30;1.00;;;;;;5114576;28;20043;-28
2022/10/20 11:57:28;;;;;;;8.85;5.40;;;13.30;70.70;;;;;;5114827;28;20055;-28
2022/10/20 12:00:17;;;;;;;10.35;5.80;;;13.20;68.70;;;;;;5091259;28;20059;-28
2022/10/20 12:03:10;;;;;;;11.77;5.72;;;13.10;82.90;;;;;;5091264;28;20086;-28
2022/10/20 12:06:04;;;;;;;6.05;5.30;;;13.20;99.90;;;;;;5104675;28;20113;-28
2022/10/20 12:08:39;;;;;;;;;;;13.20;99.90;;;;;;5114267;28;20048;-29
2022/10/20 12:11:23;;;;;;;12.95;6.00;;;13.10;99.90;;;;;;5116406;28;19920;-28
2022/10/20 12:14:13;;;;;;;9.98;5.95;;;13.10;99.90;;;;;;5118711;28;20043;-28
2022/10/20 12:16:54;;;;;;;14.98;5.90;;;13.10;1.00;;;;;;5117864;28;20056;-28
2022/10/20 12:19:29;;;;;;;8.73;5.57;;;13.10;46.90;;;;;;5117794;28;20047;-28
2022/10/20 12:22:01;;;;;;;8.52;6.05;;;13.00;27.80;;;;;;5118319;28;20386;-28
2022/10/20 12:24:39;;;;;;;11.55;6.53;;;12.90;99.90;;;;;;5117817;27;20050;-28
2022/10/20 12:27:08;;;;;;;9.02;6.30;;;12.90;99.90;;;;;;5117715;28;20083;-28
2022/10/20 12:29:34;;;;;;;9.23;6.10;;;12.90;99.90;;;;;;5115022;28;20139;-29
2022/10/20 12:32:24;;;;;;;14.32;6.80;;;12.80;99.90;;;;;;5099802;28;20118;-28
2022/10/20 12:34:53;;;;;;;8.40;6.20;;;12.70;1.00;;;;;;5117056;28;20102;-28
2022/10/20 12:37:19;;;;;;;8.18;7.03;;;12.70;1.00;;;;;;5117476;27;20112;-28
2022/10/20 12:39:46;;;;;;;10.13;6.93;;;12.60;31.40;;;;;;5117466;28;20079;-28
2022/10/20 12:42:32;;;;;;;8.23;6.82;;;12.60;44.30;;;;;;5117922;28;20068;-28
2022/10/20 12:45:17;;;;;;;9.05;6.93;;;12.60;99.90;;;;;;5116182;28;20083;-28
2022/10/20 12:47:48;;;;;;;13.25;6.35;;;12.50;99.90;;;;;;5116819;28;20047;-28
2022/10/20 12:50:37;;;;;;;14.27;7.20;;;12.50;99.90;;;;;;5117789;28;20460;-28
2022/10/20 12:53:23;;;;;;;13.38;7.88;;;12.40;99.90;;;;;;5113941;28;20054;-28
2022/10/20 12:56:10;;;;;;;13.50;7.70;;;12.30;1.00;;;;;;5117494;28;20047;-27
2022/10/20 12:58:40;;;;;;;11.27;7.93;;;12.20;24.40;;;;;;5117159;28;20126;-26
2022/10/20 13:01:09;;;;;;;15.13;8.75;;;12.00;38.90;;;;;;5117509;28;20391;-26
2022/10/20 13:03:36;;;;;;;13.85;9.75;;;11.80;99.90;;;;;;5116635;28;20489;-27
2022/10/20 13:06:21;;;;;;;12.98;8.73;;;11.70;99.90;;;;;;5098970;28;20055;-27